Atkins, Iowa
Current Conditions -  °F | °C
As of 10:52 AM on Saturday 25 Oct 2014 (Local Time) from KCID Reporting Station
Clear Clear  
Wind Chill: 62°   Ceiling: Unl
Heat Index: 62°   Visibility: 10mi
Dew Point: 48°   Wind: 8mph
Humidity: 60%   Direction: 340°NNW
Pressure: 30.06"   Gusts: NA
Location:  42°N, 91.86°W
Report Text: KCID 251552Z 34007KT 10SM CLR 17/09 A3006 RMK AO2 SLP179 T01670089
Loading
Personal Weather Stations






























Interactive Weather Map
Tropical Storm Tracking
New forecast layout! Learn more

10-Day Weather Forecast

Advertisements
Track Severe Weather on mobile